createdAt,value
2018-09-12T00:00:43.721Z,101454.54
2018-09-12T00:03:11.885Z,101458.02
2018-09-12T00:05:40.101Z,101458.00
2018-09-12T00:08:08.330Z,101454.03
2018-09-12T00:10:36.647Z,101457.53
2018-09-12T00:13:04.798Z,101450.05
2018-09-12T00:15:33.042Z,101461.03
2018-09-12T00:18:01.317Z,101466.76
2018-09-12T00:20:29.595Z,101461.95
2018-09-12T00:22:57.742Z,101456.22
2018-09-12T00:25:26.220Z,101457.03
2018-09-12T00:27:54.499Z,101453.98
2018-09-12T00:30:22.697Z,101461.00
2018-09-12T00:32:50.894Z,101457.88
2018-09-12T00:35:19.110Z,101455.16
2018-09-12T00:37:47.316Z,101455.12
2018-09-12T00:40:15.492Z,101456.88
2018-09-12T00:42:50.580Z,101459.95
2018-09-12T00:45:18.828Z,101457.78
2018-09-12T00:47:47.082Z,101455.97
2018-09-12T00:50:15.286Z,101455.56
2018-09-12T00:52:43.560Z,101455.53
2018-09-12T00:55:11.824Z,101452.42
2018-09-12T00:57:40.067Z,101451.53
2018-09-12T01:00:08.355Z,101454.20
2018-09-12T01:02:36.543Z,101454.21
2018-09-12T01:05:04.833Z,101459.92
2018-09-12T01:07:33.001Z,101462.03
2018-09-12T01:10:01.201Z,101460.28
2018-09-12T01:12:29.357Z,101456.71
2018-09-12T01:14:57.511Z,101461.52
2018-09-12T01:17:26.473Z,101461.46
2018-09-12T01:19:54.651Z,101458.84
2018-09-12T01:22:22.781Z,101458.37
2018-09-12T01:24:50.930Z,101462.80
2018-09-12T01:27:19.108Z,101464.55
2018-09-12T01:29:47.380Z,101464.13
2018-09-12T01:32:15.568Z,101459.28
2018-09-12T01:34:43.831Z,101462.34
2018-09-12T01:37:12.072Z,101462.31
2018-09-12T01:39:40.350Z,101459.62
2018-09-12T01:42:08.545Z,101458.80
2018-09-12T01:44:36.843Z,101455.66
2018-09-12T01:47:05.019Z,101454.45
2018-09-12T01:49:33.199Z,101459.20
2018-09-12T01:52:01.535Z,101456.52
2018-09-12T01:54:29.809Z,101447.67
2018-09-12T01:56:58.068Z,101450.34
2018-09-12T01:59:26.346Z,101454.30
2018-09-12T02:01:54.573Z,101455.55
2018-09-12T02:04:22.739Z,101450.69
2018-09-12T02:06:50.911Z,101448.98
2018-09-12T02:09:19.091Z,101447.23
2018-09-12T02:11:48.083Z,101446.33
2018-09-12T02:14:16.223Z,101442.41
2018-09-12T02:16:44.387Z,101446.58
2018-09-12T02:19:12.533Z,101450.11
2018-09-12T02:21:40.711Z,101450.47
2018-09-12T02:24:08.862Z,101452.66
2018-09-12T02:26:36.981Z,101448.73
2018-09-12T02:29:05.405Z,101450.92
2018-09-12T02:31:33.531Z,101450.86
2018-09-12T02:34:01.716Z,101448.66
2018-09-12T02:36:30.254Z,101446.83
2018-09-12T02:39:00.335Z,101450.37
2018-09-12T02:41:28.457Z,101451.69
2018-09-12T02:43:56.622Z,101450.78
2018-09-12T02:46:24.759Z,101450.67
2018-09-12T02:48:53.101Z,101449.77
2018-09-12T02:51:21.281Z,101444.52
2018-09-12T02:53:49.545Z,101444.43
2018-09-12T02:56:18.242Z,101444.91
2018-09-12T02:58:46.372Z,101441.89
2018-09-12T03:01:14.559Z,101441.52
2018-09-12T03:03:42.813Z,101433.98
2018-09-12T03:06:11.037Z,101425.64
2018-09-12T03:08:39.235Z,101435.33
2018-09-12T03:11:07.428Z,101427.31
2018-09-12T03:13:35.697Z,101428.11
2018-09-12T03:16:04.093Z,101423.73
2018-09-12T03:18:32.366Z,101431.62
2018-09-12T03:21:00.724Z,101432.02
2018-09-12T03:23:28.806Z,101425.44
2018-09-12T03:25:57.001Z,101413.53
2018-09-12T03:28:25.329Z,101417.45
2018-09-12T03:30:53.494Z,101416.06
2018-09-12T03:33:21.955Z,101412.27
2018-09-12T03:35:50.563Z,101411.08
2018-09-12T03:38:18.914Z,101414.89
2018-09-12T03:40:47.372Z,101415.19
2018-09-12T03:43:15.674Z,101414.39
2018-09-12T03:45:43.846Z,101417.38
2018-09-12T03:48:12.202Z,101420.50
2018-09-12T03:50:40.370Z,101419.63
2018-09-12T03:53:08.536Z,101412.80
2018-09-12T03:55:36.858Z,101419.47
2018-09-12T03:58:05.456Z,101418.12
2018-09-12T04:00:33.602Z,101409.82
2018-09-12T04:03:01.770Z,101411.48
2018-09-12T04:05:29.925Z,101413.22
2018-09-12T04:07:58.196Z,101411.44
2018-09-12T04:10:26.372Z,101409.27
2018-09-12T04:12:54.605Z,101402.69
2018-09-12T04:15:22.818Z,101405.22
2018-09-12T04:17:51.027Z,101396.47
2018-09-12T04:20:19.204Z,101395.14
2018-09-12T04:22:47.675Z,101393.34
2018-09-12T04:25:15.938Z,101393.55
2018-09-12T04:27:44.120Z,101392.08
2018-09-12T04:30:12.536Z,101394.19
2018-09-12T04:32:40.735Z,101402.47
2018-09-12T04:35:08.885Z,101396.77
2018-09-12T04:37:37.088Z,101398.95
2018-09-12T04:40:05.282Z,101393.31
2018-09-12T04:42:33.602Z,101392.87
2018-09-12T04:45:01.851Z,101390.70
2018-09-12T04:47:30.036Z,101391.99
2018-09-12T04:49:58.940Z,101389.39
2018-09-12T04:52:27.105Z,101385.83
2018-09-12T04:54:55.274Z,101376.80
2018-09-12T04:57:23.405Z,101376.26
2018-09-12T04:59:51.692Z,101381.52
2018-09-12T05:02:19.962Z,101373.16
2018-09-12T05:04:48.256Z,101377.16
2018-09-12T05:07:16.559Z,101378.50
2018-09-12T05:09:46.018Z,101373.72
2018-09-12T05:12:14.454Z,101375.53
2018-09-12T05:14:42.568Z,101379.92
2018-09-12T05:17:10.762Z,101373.31
2018-09-12T05:19:38.984Z,101380.47
2018-09-12T05:22:07.223Z,101375.22
2018-09-12T05:24:35.780Z,101381.00
2018-09-12T05:27:04.178Z,101376.28
2018-09-12T05:29:32.303Z,101375.41
2018-09-12T05:32:00.587Z,101381.27
2018-09-12T05:34:28.729Z,101384.47
2018-09-12T05:36:56.932Z,101385.94
2018-09-12T05:39:25.174Z,101391.30
2018-09-12T05:41:53.404Z,101386.13
2018-09-12T05:44:21.681Z,101388.32
2018-09-12T05:46:49.876Z,101385.31
2018-09-12T05:49:18.173Z,101385.86
2018-09-12T05:51:46.381Z,101384.12
2018-09-12T05:54:14.772Z,101381.98
2018-09-12T05:56:42.978Z,101379.87
2018-09-12T05:59:11.193Z,101383.88
2018-09-12T06:01:39.401Z,101383.05
2018-09-12T06:04:07.716Z,101380.88
2018-09-12T06:06:36.040Z,101378.70
2018-09-12T06:09:06.124Z,101376.06
2018-09-12T06:11:34.286Z,101378.27
2018-09-12T06:14:02.527Z,101367.77
2018-09-12T06:16:30.806Z,101378.75
2018-09-12T06:18:59.152Z,101375.69
2018-09-12T06:21:27.556Z,101379.20
2018-09-12T06:23:56.070Z,101376.15
2018-09-12T06:26:24.391Z,101377.03
2018-09-12T06:28:52.568Z,101375.24
2018-09-12T06:31:20.842Z,101379.67
2018-09-12T06:33:49.725Z,101381.45
2018-09-12T06:36:18.257Z,101379.23
2018-09-12T06:38:48.059Z,101384.95
2018-09-12T06:41:17.027Z,101379.21
2018-09-12T06:43:46.670Z,101380.99
2018-09-12T06:46:15.733Z,101371.27
2018-09-12T06:48:44.638Z,101379.19
2018-09-12T06:51:13.204Z,101376.09
2018-09-12T06:53:41.815Z,101384.45
2018-09-12T06:56:10.075Z,101382.20
2018-09-12T06:58:38.525Z,101385.73
2018-09-12T07:01:07.002Z,101386.61
2018-09-12T07:03:35.147Z,101384.81
2018-09-12T07:06:03.953Z,101383.06
2018-09-12T07:08:32.094Z,101372.39
2018-09-12T07:11:01.219Z,101378.56
2018-09-12T07:13:29.397Z,101378.54
2018-09-12T07:15:57.908Z,101381.19
2018-09-12T07:18:26.103Z,101377.59
2018-09-12T07:20:54.276Z,101379.80
2018-09-12T07:23:22.515Z,101372.27
2018-09-12T07:25:50.628Z,101370.04
2018-09-12T07:28:18.913Z,101370.47
2018-09-12T07:30:47.151Z,101382.84
2018-09-12T07:33:15.365Z,101386.79
2018-09-12T07:35:43.598Z,101392.55
2018-09-12T07:38:11.721Z,101388.98
2018-09-12T07:40:39.915Z,101392.91
2018-09-12T07:43:08.179Z,101396.88
2018-09-12T07:45:36.481Z,101395.11
2018-09-12T07:48:04.665Z,101399.45
2018-09-12T07:50:32.917Z,101394.98
2018-09-12T07:53:01.099Z,101402.45
2018-09-12T07:55:29.461Z,101399.34
2018-09-12T07:57:57.788Z,101399.77
2018-09-12T08:00:26.041Z,101405.48
2018-09-12T08:02:54.311Z,101399.23
2018-09-12T08:05:22.713Z,101402.27
2018-09-12T08:07:50.960Z,101403.52
2018-09-12T08:10:19.108Z,101403.94
2018-09-12T08:12:47.286Z,101404.25
2018-09-12T08:15:15.509Z,101397.79
2018-09-12T08:17:43.656Z,101397.83
2018-09-12T08:20:11.953Z,101394.98
2018-09-12T08:22:40.238Z,101408.38
2018-09-12T08:25:08.566Z,101400.73
2018-09-12T08:27:36.764Z,101406.63
2018-09-12T08:30:05.160Z,101402.63
2018-09-12T08:32:33.334Z,101398.99
2018-09-12T08:35:01.520Z,101404.98
2018-09-12T08:37:29.720Z,101406.56
2018-09-12T08:39:57.957Z,101405.48
2018-09-12T08:42:26.334Z,101406.19
2018-09-12T08:44:54.564Z,101413.34
2018-09-12T08:47:22.750Z,101408.88
2018-09-12T08:49:51.348Z,101414.38
2018-09-12T08:52:19.556Z,101412.84
2018-09-12T08:54:47.760Z,101415.52
2018-09-12T08:57:16.125Z,101412.25
2018-09-12T08:59:44.318Z,101414.31
2018-09-12T09:02:12.521Z,101420.03
2018-09-12T09:04:41.389Z,101415.71
2018-09-12T09:07:09.609Z,101420.95
2018-09-12T09:09:37.885Z,101414.36
2018-09-12T09:12:06.291Z,101413.61
2018-09-12T09:14:34.457Z,101414.36
2018-09-12T09:17:02.943Z,101418.19
2018-09-12T09:19:31.208Z,101419.05
2018-09-12T09:21:59.727Z,101416.20
2018-09-12T09:24:27.872Z,101410.93
2018-09-12T09:26:56.394Z,101410.16
2018-09-12T09:29:24.637Z,101410.92
2018-09-12T09:31:52.802Z,101410.80
2018-09-12T09:34:20.986Z,101404.45
2018-09-12T09:36:49.638Z,101404.02
2018-09-12T09:39:17.940Z,101403.88
2018-09-12T09:41:46.314Z,101397.05
2018-09-12T09:44:14.547Z,101402.16
2018-09-12T09:46:43.118Z,101397.12
2018-09-12T09:49:11.229Z,101402.53
2018-09-12T09:51:39.378Z,101402.53
2018-09-12T09:54:07.508Z,101398.53
2018-09-12T09:56:36.317Z,101401.22
2018-09-12T09:59:04.535Z,101395.78
2018-09-12T10:01:38.343Z,101394.45
2018-09-12T10:04:12.032Z,101390.67
2018-09-12T10:06:45.538Z,101389.00
2018-09-12T10:09:19.082Z,101384.30
2018-09-12T10:11:47.348Z,101386.12
2018-09-12T10:14:15.622Z,101381.50
2018-09-12T10:16:43.873Z,101391.45
2018-09-12T10:19:12.078Z,101385.47
2018-09-12T10:21:41.167Z,101388.63
2018-09-12T10:24:09.458Z,101391.34
2018-09-12T10:26:37.708Z,101388.49
2018-09-12T10:29:05.896Z,101381.41
2018-09-12T10:31:34.199Z,101381.09
2018-09-12T10:34:02.433Z,101384.30
2018-09-12T10:36:30.642Z,101377.62
2018-09-12T10:38:59.115Z,101381.20
2018-09-12T10:41:27.296Z,101377.33
2018-09-12T10:43:55.455Z,101375.64
2018-09-12T10:46:23.723Z,101374.58
2018-09-12T10:48:51.988Z,101373.73
2018-09-12T10:51:20.303Z,101361.66
2018-09-12T10:53:48.622Z,101373.59
2018-09-12T10:56:16.829Z,101371.75
2018-09-12T10:58:45.121Z,101367.08
2018-09-12T11:01:13.295Z,101369.56
2018-09-12T11:03:41.530Z,101364.82
2018-09-12T11:06:09.826Z,101364.17
2018-09-12T11:08:38.019Z,101363.64
2018-09-12T11:11:06.255Z,101362.47
2018-09-12T11:13:34.617Z,101367.50
2018-09-12T11:16:02.788Z,101371.44
2018-09-12T11:18:30.936Z,101367.52
2018-09-12T11:20:59.271Z,101366.96
2018-09-12T11:23:27.430Z,101370.02
2018-09-12T11:25:55.773Z,101367.42
2018-09-12T11:28:24.219Z,101363.09
2018-09-12T11:30:52.626Z,101365.84
2018-09-12T11:33:20.887Z,101359.64
2018-09-12T11:35:49.033Z,101363.06
2018-09-12T11:38:17.568Z,101358.16
2018-09-12T11:40:45.710Z,101360.59
2018-09-12T11:43:13.961Z,101348.66
2018-09-12T11:45:42.191Z,101348.66
2018-09-12T11:48:10.355Z,101350.92
2018-09-12T11:50:38.563Z,101350.57
2018-09-12T11:53:07.541Z,101347.47
2018-09-12T11:55:35.768Z,101337.04
2018-09-12T11:58:04.276Z,101340.11
2018-09-12T12:00:32.817Z,101336.62
2018-09-12T12:03:01.143Z,101338.54
2018-09-12T12:05:29.381Z,101339.98
2018-09-12T12:07:57.648Z,101329.44
2018-09-12T12:10:25.919Z,101341.51
2018-09-12T12:12:54.141Z,101333.14
2018-09-12T12:15:22.351Z,101331.10
2018-09-12T12:17:50.646Z,101333.68
2018-09-12T12:20:18.946Z,101331.01
2018-09-12T12:22:47.213Z,101328.93
2018-09-12T12:25:15.460Z,101328.12
2018-09-12T12:27:43.691Z,101331.63
2018-09-12T12:30:12.113Z,101320.65
2018-09-12T12:32:40.691Z,101323.61
2018-09-12T12:35:08.813Z,101324.63
2018-09-12T12:37:37.097Z,101310.30
2018-09-12T12:40:05.479Z,101319.72
2018-09-12T12:42:33.752Z,101321.13
2018-09-12T12:45:01.928Z,101317.92
2018-09-12T12:47:30.097Z,101315.28
2018-09-12T12:49:58.329Z,101314.66
2018-09-12T12:52:26.679Z,101312.06
2018-09-12T12:54:54.861Z,101310.30
2018-09-12T12:57:24.122Z,101305.63
2018-09-12T12:59:52.367Z,101299.05
2018-09-12T13:02:21.415Z,101304.08
2018-09-12T13:04:49.722Z,101310.19
2018-09-12T13:07:18.125Z,101301.58
2018-09-12T13:09:46.464Z,101299.34
2018-09-12T13:12:14.628Z,101297.64
2018-09-12T13:14:43.086Z,101293.81
2018-09-12T13:17:11.285Z,101292.55
2018-09-12T13:19:39.541Z,101289.83
2018-09-12T13:22:07.739Z,101287.88
2018-09-12T13:24:36.078Z,101295.04
2018-09-12T13:27:04.953Z,101301.52
2018-09-12T13:29:33.683Z,101300.45
2018-09-12T13:32:01.905Z,101306.70
2018-09-12T13:34:30.298Z,101312.90
2018-09-12T13:36:59.732Z,101300.00
2018-09-12T13:39:27.997Z,101300.20
2018-09-12T13:41:56.188Z,101299.05
2018-09-12T13:44:24.487Z,101296.08
2018-09-12T13:46:52.730Z,101320.04
2018-09-12T13:49:20.881Z,101309.86
2018-09-12T13:51:49.082Z,101312.59
2018-09-12T13:54:17.345Z,101315.65
2018-09-12T13:56:45.629Z,101314.91
2018-09-12T13:59:13.840Z,101314.12
2018-09-12T14:01:42.044Z,101314.79
2018-09-12T14:04:10.406Z,101311.05
2018-09-12T14:06:38.605Z,101303.30
2018-09-12T14:09:08.631Z,101308.81
2018-09-12T14:11:37.001Z,101317.53
2018-09-12T14:14:05.145Z,101312.11
2018-09-12T14:16:33.309Z,101321.00
2018-09-12T14:19:01.598Z,101319.98
2018-09-12T14:21:29.831Z,101323.02
2018-09-12T14:23:58.291Z,101309.86
2018-09-12T14:26:26.477Z,101326.94
2018-09-12T14:28:54.748Z,101319.06
2018-09-12T14:31:23.811Z,101303.35
2018-09-12T14:33:52.917Z,101309.28
2018-09-12T14:36:21.611Z,101304.95
2018-09-12T14:38:49.957Z,101309.08
2018-09-12T14:41:18.394Z,101307.16
2018-09-12T14:43:46.617Z,101312.91
2018-09-12T14:46:15.141Z,101313.80
2018-09-12T14:48:43.571Z,101320.41
2018-09-12T14:51:13.222Z,101319.13
2018-09-12T14:53:43.062Z,101323.40
2018-09-12T14:56:11.331Z,101321.22
2018-09-12T14:58:39.639Z,101327.55
2018-09-12T15:01:07.882Z,101330.16
2018-09-12T15:03:36.510Z,101339.91
2018-09-12T15:06:04.853Z,101344.30
2018-09-12T15:08:33.064Z,101337.23
2018-09-12T15:11:01.277Z,101344.47
2018-09-12T15:13:29.414Z,101343.21
2018-09-12T15:15:57.613Z,101348.72
2018-09-12T15:18:25.768Z,101345.32
2018-09-12T15:20:54.446Z,101347.09
2018-09-12T15:23:22.752Z,101335.63
2018-09-12T15:25:51.009Z,101353.62
2018-09-12T15:28:19.342Z,101355.78
2018-09-12T15:30:47.519Z,101357.48
2018-09-12T15:33:15.773Z,101362.02
2018-09-12T15:35:44.093Z,101370.00
2018-09-12T15:38:12.268Z,101365.16
2018-09-12T15:40:40.464Z,101369.39
2018-09-12T15:43:08.842Z,101370.59
2018-09-12T15:45:37.116Z,101376.50
2018-09-12T15:48:05.930Z,101372.73
2018-09-12T15:50:34.070Z,101374.12
2018-09-12T15:53:02.418Z,101375.66
2018-09-12T15:55:31.284Z,101374.54
2018-09-12T15:57:59.509Z,101373.26
2018-09-12T16:00:27.659Z,101376.37
2018-09-12T16:02:56.678Z,101381.17
2018-09-12T16:05:25.236Z,101382.02
2018-09-12T16:07:53.622Z,101385.73
2018-09-12T16:10:21.900Z,101392.87
2018-09-12T16:12:50.068Z,101402.80
2018-09-12T16:15:18.363Z,101400.96
2018-09-12T16:17:46.475Z,101405.50
2018-09-12T16:20:14.654Z,101408.27
2018-09-12T16:22:43.629Z,101407.18
2018-09-12T16:25:11.947Z,101410.45
2018-09-12T16:27:40.200Z,101415.75
2018-09-12T16:30:08.587Z,101416.03
2018-09-12T16:32:37.087Z,101420.11
2018-09-12T16:35:05.267Z,101422.80
2018-09-12T16:37:33.525Z,101436.53
2018-09-12T16:40:01.910Z,101433.97
2018-09-12T16:42:30.470Z,101443.74
2018-09-12T16:44:58.855Z,101445.60
2018-09-12T16:47:27.203Z,101448.21
2018-09-12T16:49:55.388Z,101448.31
2018-09-12T16:52:23.543Z,101444.42
2018-09-12T16:54:51.814Z,101448.38
2018-09-12T16:57:20.023Z,101455.50
2018-09-12T16:59:48.325Z,101459.03
2018-09-12T17:02:16.562Z,101470.52
2018-09-12T17:04:44.763Z,101477.55
2018-09-12T17:07:13.076Z,101472.25
2018-09-12T17:09:41.313Z,101471.37
2018-09-12T17:12:09.612Z,101469.12
2018-09-12T17:14:37.829Z,101477.87
2018-09-12T17:17:06.465Z,101478.28
2018-09-12T17:19:34.838Z,101486.62
2018-09-12T17:22:03.058Z,101480.87
2018-09-12T17:24:31.207Z,101487.46
2018-09-12T17:26:59.348Z,101484.84
2018-09-12T17:29:27.549Z,101496.72
2018-09-12T17:31:55.900Z,101489.19
2018-09-12T17:34:24.256Z,101498.39
2018-09-12T17:36:52.870Z,101494.89
2018-09-12T17:39:21.284Z,101500.14
2018-09-12T17:41:49.479Z,101501.39
2018-09-12T17:44:17.759Z,101506.74
2018-09-12T17:46:46.123Z,101501.50
2018-09-12T17:49:14.344Z,101503.33
2018-09-12T17:51:42.543Z,101512.13
2018-09-12T17:54:10.758Z,101509.89
2018-09-12T17:56:38.985Z,101512.06
2018-09-12T17:59:07.189Z,101516.45
2018-09-12T18:01:35.523Z,101519.52
2018-09-12T18:04:03.831Z,101522.16
2018-09-12T18:06:32.117Z,101528.66
2018-09-12T18:09:00.493Z,101538.85
2018-09-12T18:11:28.680Z,101542.77
2018-09-12T18:13:56.846Z,101550.00
2018-09-12T18:16:25.194Z,101551.54
2018-09-12T18:18:53.398Z,101556.77
2018-09-12T18:21:21.596Z,101558.10
2018-09-12T18:23:49.921Z,101564.31
2018-09-12T18:26:18.103Z,101558.75
2018-09-12T18:28:46.829Z,101556.41
2018-09-12T18:31:15.061Z,101558.62
2018-09-12T18:33:44.088Z,101567.91
2018-09-12T18:36:12.401Z,101576.15
2018-09-12T18:38:40.756Z,101571.30
2018-09-12T18:41:09.180Z,101583.48
2018-09-12T18:43:37.495Z,101589.15
2018-09-12T18:46:05.706Z,101602.50
2018-09-12T18:48:34.011Z,101598.95
2018-09-12T18:51:08.264Z,101621.62
2018-09-12T18:53:37.082Z,101620.25
2018-09-12T18:56:06.866Z,101618.20
2018-09-12T18:58:35.362Z,101616.47
2018-09-12T19:01:04.241Z,101612.87
2018-09-12T19:03:32.745Z,101617.32
2018-09-12T19:06:01.101Z,101632.52
2018-09-12T19:08:30.197Z,101635.53
2018-09-12T19:10:59.269Z,101636.60
2018-09-12T19:13:28.824Z,101631.27
2018-09-12T19:15:57.527Z,101633.87
2018-09-12T19:18:26.257Z,101630.05
2018-09-12T19:20:54.677Z,101633.23
2018-09-12T19:23:23.164Z,101625.56
2018-09-12T19:25:51.485Z,101632.39
2018-09-12T19:28:20.033Z,101629.34
2018-09-12T19:30:48.743Z,101630.13
2018-09-12T19:33:17.167Z,101632.35
2018-09-12T19:35:45.638Z,101636.57
2018-09-12T19:38:13.849Z,101647.68
2018-09-12T19:40:43.458Z,101657.63
2018-09-12T19:43:11.620Z,101666.81
2018-09-12T19:45:40.213Z,101668.50
2018-09-12T19:48:08.531Z,101667.17
2018-09-12T19:50:36.760Z,101666.27
2018-09-12T19:53:05.059Z,101660.81
2018-09-12T19:55:33.388Z,101662.89
2018-09-12T19:58:01.901Z,101658.55
2018-09-12T20:00:30.237Z,101668.39
2018-09-12T20:02:58.628Z,101660.17
2018-09-12T20:05:27.497Z,101663.57
2018-09-12T20:07:55.761Z,101652.77
2018-09-12T20:10:24.600Z,101650.31
2018-09-12T20:12:52.908Z,101647.46
2018-09-12T20:15:21.572Z,101652.39
2018-09-12T20:17:49.912Z,101649.97
2018-09-12T20:20:18.243Z,101654.83
2018-09-12T20:22:46.479Z,101663.08
2018-09-12T20:25:14.682Z,101664.70
2018-09-12T20:27:42.945Z,101666.41
2018-09-12T20:30:11.682Z,101667.70
2018-09-12T20:32:39.873Z,101671.30
2018-09-12T20:35:08.273Z,101673.41
2018-09-12T20:37:36.592Z,101680.65
2018-09-12T20:40:05.301Z,101679.55
2018-09-12T20:42:33.522Z,101686.04
2018-09-12T20:45:01.812Z,101684.29
2018-09-12T20:47:29.980Z,101675.08
2018-09-12T20:49:58.835Z,101674.30
2018-09-12T20:52:27.051Z,101683.45
2018-09-12T20:54:55.280Z,101674.95
2018-09-12T20:57:23.541Z,101673.20
2018-09-12T20:59:52.875Z,101676.49
2018-09-12T21:02:21.029Z,101672.80
2018-09-12T21:04:49.164Z,101676.58
2018-09-12T21:07:17.685Z,101686.08
2018-09-12T21:09:45.869Z,101682.36
2018-09-12T21:12:14.065Z,101672.41
2018-09-12T21:14:42.257Z,101680.83
2018-09-12T21:17:10.449Z,101694.67
2018-09-12T21:19:38.778Z,101694.80
2018-09-12T21:22:07.193Z,101698.25
2018-09-12T21:24:36.817Z,101692.22
2018-09-12T21:27:05.012Z,101703.66
2018-09-12T21:29:33.326Z,101708.87
2018-09-12T21:32:01.790Z,101708.42
2018-09-12T21:34:30.280Z,101704.88
2018-09-12T21:36:58.612Z,101706.98
2018-09-12T21:39:26.811Z,101714.14
2018-09-12T21:41:54.992Z,101708.09
2018-09-12T21:44:23.160Z,101704.19
2018-09-12T21:46:51.352Z,101703.66
2018-09-12T21:49:19.510Z,101702.39
2018-09-12T21:51:47.931Z,101699.80
2018-09-12T21:54:16.142Z,101712.45
2018-09-12T21:56:44.282Z,101703.22
2018-09-12T21:59:12.538Z,101709.22
2018-09-12T22:01:40.836Z,101712.81
2018-09-12T22:04:09.058Z,101714.39
2018-09-12T22:06:37.192Z,101716.33
2018-09-12T22:09:08.524Z,101715.78
2018-09-12T22:11:36.691Z,101719.26
2018-09-12T22:14:04.869Z,101727.41
2018-09-12T22:16:33.829Z,101727.51
2018-09-12T22:19:02.257Z,101733.70
2018-09-12T22:21:30.577Z,101729.16
2018-09-12T22:23:58.787Z,101730.86
2018-09-12T22:26:27.026Z,101730.38
2018-09-12T22:28:55.303Z,101729.22
2018-09-12T22:31:23.589Z,101731.70
2018-09-12T22:33:51.869Z,101728.52
2018-09-12T22:36:20.136Z,101727.66
2018-09-12T22:38:48.511Z,101732.47
2018-09-12T22:41:16.752Z,101731.30
2018-09-12T22:43:45.099Z,101727.75
2018-09-12T22:46:13.260Z,101728.53
2018-09-12T22:48:41.458Z,101720.70
2018-09-12T22:51:09.713Z,101721.51
2018-09-12T22:53:38.072Z,101718.11
2018-09-12T22:56:06.562Z,101718.41
2018-09-12T22:58:34.723Z,101727.08
2018-09-12T23:01:02.895Z,101725.95
2018-09-12T23:03:31.029Z,101724.25
2018-09-12T23:05:59.181Z,101722.73
2018-09-12T23:08:27.454Z,101732.81
2018-09-12T23:10:55.656Z,101732.86
2018-09-12T23:13:25.222Z,101723.03
2018-09-12T23:15:53.449Z,101729.94
2018-09-12T23:18:21.608Z,101735.55
2018-09-12T23:20:49.824Z,101735.34
2018-09-12T23:23:17.957Z,101731.74
2018-09-12T23:25:46.210Z,101724.92
2018-09-12T23:28:14.412Z,101731.41
2018-09-12T23:30:42.554Z,101724.87
2018-09-12T23:33:10.842Z,101726.54
2018-09-12T23:35:39.016Z,101722.73
2018-09-12T23:38:07.247Z,101733.45
2018-09-12T23:40:35.728Z,101736.66
2018-09-12T23:43:03.946Z,101743.61
2018-09-12T23:45:32.092Z,101735.69
2018-09-12T23:48:00.229Z,101731.11
2018-09-12T23:50:28.532Z,101723.06
2018-09-12T23:52:56.914Z,101713.34
2018-09-12T23:55:25.084Z,101716.90
2018-09-12T23:57:53.258Z,101710.09
